createdAt,value
2019-01-16T00:00:13.515Z,68.77
2019-01-16T00:03:24.513Z,68.67
2019-01-16T00:06:31.720Z,67.84
2019-01-16T00:09:37.409Z,67.99
2019-01-16T00:12:36.519Z,67.91
2019-01-16T00:15:48.621Z,68.58
2019-01-16T00:18:56.697Z,69.36
2019-01-16T00:22:03.752Z,69.32
2019-01-16T00:25:10.804Z,69.09
2019-01-16T00:28:18.141Z,69.91
2019-01-16T00:31:26.816Z,71.25
2019-01-16T00:34:50.220Z,71.05
2019-01-16T00:37:52.504Z,71.39
2019-01-16T00:40:57.792Z,72.11
2019-01-16T00:44:12.325Z,70.83
2019-01-16T00:47:21.247Z,70.93
2019-01-16T00:50:33.220Z,71.47
2019-01-16T00:53:41.031Z,72.69
2019-01-16T00:56:48.711Z,72.96
2019-01-16T00:59:56.459Z,73.88
2019-01-16T01:03:16.275Z,75.55
2019-01-16T01:06:37.735Z,76.06
2019-01-16T01:09:53.156Z,76.62
2019-01-16T01:13:01.402Z,75.59
2019-01-16T01:16:12.075Z,77.50
2019-01-16T01:19:10.438Z,78.04
2019-01-16T01:22:11.009Z,77.38
2019-01-16T01:25:28.193Z,77.42
2019-01-16T01:28:51.575Z,77.84
2019-01-16T01:31:59.832Z,77.80
2019-01-16T01:35:03.089Z,76.48
2019-01-16T01:38:23.570Z,76.04
2019-01-16T01:41:30.085Z,76.26
2019-01-16T01:44:44.755Z,76.78
2019-01-16T01:47:52.530Z,76.74
2019-01-16T01:51:03.393Z,76.59
2019-01-16T01:54:09.757Z,74.75
2019-01-16T01:57:16.719Z,75.13
2019-01-16T02:00:26.436Z,75.05
2019-01-16T02:03:34.625Z,74.04
2019-01-16T02:06:46.325Z,74.68
2019-01-16T02:09:54.091Z,75.07
2019-01-16T02:13:17.835Z,76.06
2019-01-16T02:16:38.978Z,76.71
2019-01-16T02:19:42.013Z,77.28
2019-01-16T02:22:56.503Z,77.76
2019-01-16T02:26:03.949Z,78.16
2019-01-16T02:29:30.422Z,78.34
2019-01-16T02:32:36.601Z,78.38
2019-01-16T02:35:41.755Z,77.69
2019-01-16T02:38:41.579Z,78.95
2019-01-16T02:41:48.939Z,79.43
2019-01-16T02:45:06.455Z,80.10
2019-01-16T02:48:32.415Z,81.10
2019-01-16T02:51:39.873Z,80.87
2019-01-16T02:55:00.736Z,80.88
2019-01-16T02:57:58.944Z,80.59
2019-01-16T03:01:25.553Z,79.47
2019-01-16T03:04:45.677Z,79.74
2019-01-16T03:07:53.947Z,80.88
2019-01-16T03:11:08.200Z,81.20
2019-01-16T03:14:32.181Z,82.39
2019-01-16T03:17:40.219Z,82.31
2019-01-16T03:20:52.640Z,82.68
2019-01-16T03:24:04.023Z,81.04
2019-01-16T03:27:17.797Z,82.52
2019-01-16T03:30:30.402Z,81.82
2019-01-16T03:33:56.719Z,81.67
2019-01-16T03:37:03.269Z,81.04
2019-01-16T03:40:17.495Z,81.52
2019-01-16T03:43:34.496Z,81.28
2019-01-16T03:46:45.078Z,81.20
2019-01-16T03:50:11.441Z,79.61
2019-01-16T03:53:16.941Z,79.12
2019-01-16T03:56:23.695Z,79.44
2019-01-16T03:59:37.809Z,79.37
2019-01-16T04:02:54.945Z,78.87
2019-01-16T04:06:01.323Z,78.41
2019-01-16T04:09:24.674Z,78.64
2019-01-16T04:12:32.199Z,78.35
2019-01-16T04:15:39.431Z,78.27
2019-01-16T04:18:46.565Z,77.69
2019-01-16T04:21:58.072Z,78.31
2019-01-16T04:25:07.764Z,78.55
2019-01-16T04:28:16.540Z,78.38
2019-01-16T04:31:37.085Z,78.34
2019-01-16T04:34:48.217Z,78.27
2019-01-16T04:37:55.807Z,78.44
2019-01-16T04:41:00.849Z,79.41
2019-01-16T04:44:24.501Z,78.47
2019-01-16T04:47:32.303Z,78.50
2019-01-16T04:50:39.748Z,79.12
2019-01-16T04:54:03.544Z,79.80
2019-01-16T04:57:11.019Z,77.92
2019-01-16T05:00:22.516Z,76.66
2019-01-16T05:03:36.887Z,78.68
2019-01-16T05:06:45.093Z,78.70
2019-01-16T05:09:45.278Z,79.11
2019-01-16T05:12:53.915Z,79.00
2019-01-16T05:16:11.853Z,75.64
2019-01-16T05:19:19.499Z,72.95
2019-01-16T05:22:20.042Z,70.24
2019-01-16T05:25:44.457Z,69.15
2019-01-16T05:28:51.906Z,68.38
2019-01-16T05:32:03.362Z,68.69
2019-01-16T05:35:09.657Z,69.07
2019-01-16T05:38:04.486Z,67.87
2019-01-16T05:41:06.148Z,67.92
2019-01-16T05:44:17.765Z,68.23
2019-01-16T05:47:31.950Z,66.47
2019-01-16T05:50:48.676Z,66.95
2019-01-16T05:53:57.079Z,66.30
2019-01-16T05:57:22.481Z,65.63
2019-01-16T06:00:53.292Z,65.08
2019-01-16T06:04:04.125Z,65.84
2019-01-16T06:07:23.163Z,66.05
2019-01-16T06:10:35.400Z,66.08
2019-01-16T06:13:35.464Z,66.45
2019-01-16T06:16:31.883Z,67.13
2019-01-16T06:19:54.120Z,67.71
2019-01-16T06:23:05.217Z,69.94
2019-01-16T06:26:19.523Z,70.64
2019-01-16T06:29:39.450Z,71.29
2019-01-16T06:32:42.716Z,72.57
2019-01-16T06:36:00.621Z,72.46
2019-01-16T06:39:07.773Z,72.82
2019-01-16T06:42:04.344Z,72.13
2019-01-16T06:45:07.263Z,71.17
2019-01-16T06:48:31.060Z,71.04
2019-01-16T06:51:53.844Z,70.25
2019-01-16T06:55:11.222Z,69.93
2019-01-16T06:58:14.362Z,70.28
2019-01-16T07:01:37.579Z,69.37
2019-01-16T07:04:54.109Z,68.75
2019-01-16T07:07:53.607Z,69.23
2019-01-16T07:11:14.326Z,68.78
2019-01-16T07:14:20.698Z,69.21
2019-01-16T07:17:32.670Z,67.43
2019-01-16T07:20:39.171Z,67.01
2019-01-16T07:23:38.699Z,67.34
2019-01-16T07:26:46.303Z,67.02
2019-01-16T07:29:53.785Z,66.64
2019-01-16T07:33:21.762Z,66.57
2019-01-16T07:36:28.414Z,65.47
2019-01-16T07:39:35.313Z,65.23
2019-01-16T07:42:47.344Z,64.98
2019-01-16T07:45:54.763Z,65.62
2019-01-16T07:48:55.167Z,64.70
2019-01-16T07:52:09.752Z,63.06
2019-01-16T07:55:21.126Z,63.47
2019-01-16T07:58:48.051Z,61.90
2019-01-16T08:02:05.321Z,61.47
2019-01-16T08:05:19.170Z,61.00
2019-01-16T08:08:21.939Z,60.67
2019-01-16T08:11:29.285Z,60.08
2019-01-16T08:14:43.944Z,60.94
2019-01-16T08:17:54.818Z,61.53
2019-01-16T08:21:03.349Z,61.10
2019-01-16T08:24:05.216Z,60.18
2019-01-16T08:27:16.456Z,60.40
2019-01-16T08:30:26.182Z,59.36
2019-01-16T08:33:38.840Z,60.22
2019-01-16T08:36:46.547Z,60.11
2019-01-16T08:40:04.145Z,59.66
2019-01-16T08:43:15.205Z,59.48
2019-01-16T08:46:21.460Z,58.45
2019-01-16T08:49:28.931Z,59.05
2019-01-16T08:52:43.555Z,60.09
2019-01-16T08:55:51.320Z,60.27
2019-01-16T08:58:59.938Z,59.83
2019-01-16T09:01:53.436Z,59.61
2019-01-16T09:04:38.830Z,59.89
2019-01-16T09:07:35.215Z,59.45
2019-01-16T09:10:26.163Z,59.95
2019-01-16T09:13:25.338Z,60.74
2019-01-16T09:16:21.294Z,58.86
2019-01-16T09:19:12.514Z,59.00
2019-01-16T09:22:20.584Z,58.82
2019-01-16T09:25:13.467Z,61.04
2019-01-16T09:28:02.097Z,59.61
2019-01-16T09:30:50.874Z,60.14
2019-01-16T09:33:33.726Z,59.88
2019-01-16T09:36:19.537Z,59.15
2019-01-16T09:39:18.513Z,59.94
2019-01-16T09:42:11.227Z,60.60
2019-01-16T09:45:07.058Z,59.29
2019-01-16T09:47:56.910Z,56.99
2019-01-16T09:50:56.594Z,58.33
2019-01-16T09:53:50.944Z,58.08
2019-01-16T09:56:35.553Z,57.10
2019-01-16T09:59:28.546Z,57.32
2019-01-16T10:02:21.536Z,57.39
2019-01-16T10:05:14.428Z,58.29
2019-01-16T10:07:55.386Z,58.08
2019-01-16T10:10:44.267Z,58.97
2019-01-16T10:13:34.338Z,58.78
2019-01-16T10:16:16.672Z,59.00
2019-01-16T10:19:09.289Z,57.39
2019-01-16T10:22:05.164Z,58.60
2019-01-16T10:24:50.287Z,57.51
2019-01-16T10:27:42.093Z,57.78
2019-01-16T10:30:36.047Z,57.18
2019-01-16T10:33:26.401Z,58.24
2019-01-16T10:36:23.352Z,58.03
2019-01-16T10:39:13.167Z,57.93
2019-01-16T10:42:07.597Z,57.05
2019-01-16T10:45:06.670Z,57.21
2019-01-16T10:47:46.455Z,58.16
2019-01-16T10:50:38.760Z,57.23
2019-01-16T10:53:25.114Z,58.51
2019-01-16T10:56:36.293Z,57.35
2019-01-16T10:59:24.652Z,58.00
2019-01-16T11:02:15.937Z,57.37
2019-01-16T11:05:13.449Z,57.22
2019-01-16T11:07:56.648Z,57.77
2019-01-16T11:10:45.550Z,57.76
2019-01-16T11:13:44.941Z,57.33
2019-01-16T11:16:35.008Z,57.90
2019-01-16T11:19:28.020Z,57.68
2019-01-16T11:22:18.346Z,57.82
2019-01-16T11:25:11.266Z,57.01
2019-01-16T11:28:01.464Z,56.60
2019-01-16T11:30:54.060Z,55.72
2019-01-16T11:33:42.206Z,55.93
2019-01-16T11:36:35.593Z,56.58
2019-01-16T11:39:35.828Z,56.85
2019-01-16T11:42:20.891Z,56.95
2019-01-16T11:45:05.948Z,55.93
2019-01-16T11:47:55.780Z,56.07
2019-01-16T11:50:40.701Z,56.32
2019-01-16T11:53:29.599Z,55.94
2019-01-16T11:56:18.075Z,55.21
2019-01-16T11:59:16.982Z,55.50
2019-01-16T12:02:02.772Z,55.37
2019-01-16T12:04:51.602Z,54.99
2019-01-16T12:07:50.453Z,54.95
2019-01-16T12:10:41.798Z,54.33
2019-01-16T12:13:37.733Z,55.41
2019-01-16T12:16:26.170Z,54.67
2019-01-16T12:19:22.130Z,55.42
2019-01-16T12:22:20.885Z,54.74
2019-01-16T12:25:26.375Z,56.54
2019-01-16T12:28:22.604Z,55.31
2019-01-16T12:31:11.716Z,55.47
2019-01-16T12:34:07.903Z,55.68
2019-01-16T12:36:58.277Z,55.54
2019-01-16T12:39:58.948Z,55.56
2019-01-16T12:42:47.480Z,55.19
2019-01-16T12:45:53.167Z,55.47
2019-01-16T12:48:58.298Z,55.74
2019-01-16T12:51:47.313Z,56.30
2019-01-16T12:54:37.791Z,55.71
2019-01-16T12:57:36.576Z,55.57
2019-01-16T13:00:34.212Z,55.67
2019-01-16T13:03:43.122Z,56.12
2019-01-16T13:06:33.116Z,54.65
2019-01-16T13:09:23.685Z,54.93
2019-01-16T13:12:06.185Z,54.54
2019-01-16T13:15:00.232Z,53.87
2019-01-16T13:17:50.000Z,52.40
2019-01-16T13:20:55.646Z,51.82
2019-01-16T13:23:44.625Z,52.51
2019-01-16T13:26:46.771Z,51.45
2019-01-16T13:29:42.962Z,50.72
2019-01-16T13:32:42.223Z,50.91
2019-01-16T13:35:34.907Z,49.60
2019-01-16T13:38:29.410Z,52.62
2019-01-16T13:41:21.047Z,55.83
2019-01-16T13:44:11.253Z,54.81
2019-01-16T13:46:52.913Z,54.34
2019-01-16T13:49:51.987Z,53.06
2019-01-16T13:52:41.071Z,54.48
2019-01-16T13:55:24.272Z,56.24
2019-01-16T13:58:12.851Z,56.99
2019-01-16T14:00:51.771Z,57.60
2019-01-16T14:03:44.482Z,57.12
2019-01-16T14:06:40.808Z,57.22
2019-01-16T14:09:30.627Z,58.21
2019-01-16T14:12:11.706Z,58.54
2019-01-16T14:15:01.525Z,58.41
2019-01-16T14:17:47.279Z,58.84
2019-01-16T14:20:46.149Z,58.42
2019-01-16T14:23:54.625Z,60.18
2019-01-16T14:26:40.302Z,59.67
2019-01-16T14:29:21.889Z,59.89
2019-01-16T14:32:11.699Z,59.41
2019-01-16T14:34:55.874Z,59.17
2019-01-16T14:37:44.653Z,59.64
2019-01-16T14:40:24.052Z,59.47
2019-01-16T14:43:08.172Z,60.01
2019-01-16T14:46:01.091Z,60.12
2019-01-16T14:49:06.010Z,61.25
2019-01-16T14:51:59.786Z,60.49
2019-01-16T14:54:45.761Z,60.93
2019-01-16T14:57:34.342Z,62.00
2019-01-16T15:00:24.570Z,61.68
2019-01-16T15:03:13.507Z,60.70
2019-01-16T15:05:51.981Z,61.26
2019-01-16T15:08:34.314Z,60.81
2019-01-16T15:11:22.902Z,61.32
2019-01-16T15:14:12.373Z,61.65
2019-01-16T15:17:09.612Z,61.33
2019-01-16T15:20:00.696Z,60.88
2019-01-16T15:22:52.284Z,60.40
2019-01-16T15:25:51.282Z,61.54
2019-01-16T15:28:53.120Z,60.84
2019-01-16T15:31:38.908Z,61.43
2019-01-16T15:34:29.140Z,60.44
2019-01-16T15:37:29.265Z,62.36
2019-01-16T15:40:19.693Z,62.25
2019-01-16T15:43:16.347Z,63.01
2019-01-16T15:46:06.894Z,63.31
2019-01-16T15:48:56.747Z,62.08
2019-01-16T15:51:52.989Z,62.03
2019-01-16T15:55:01.075Z,60.97
2019-01-16T15:57:49.464Z,60.66
2019-01-16T16:00:48.585Z,61.14
2019-01-16T16:03:37.382Z,62.30
2019-01-16T16:06:26.185Z,61.78
2019-01-16T16:09:34.073Z,62.88
2019-01-16T16:12:42.866Z,61.65
2019-01-16T16:15:32.327Z,62.00
2019-01-16T16:18:19.996Z,61.87
2019-01-16T16:21:08.302Z,60.23
2019-01-16T16:23:58.159Z,61.87
2019-01-16T16:26:46.700Z,62.96
2019-01-16T16:29:32.467Z,62.83
2019-01-16T16:32:33.055Z,62.97
2019-01-16T16:35:32.457Z,63.11
2019-01-16T16:38:34.232Z,62.00
2019-01-16T16:41:27.588Z,61.39
2019-01-16T16:44:27.256Z,61.59
2019-01-16T16:47:16.791Z,61.15
2019-01-16T16:50:04.069Z,61.13
2019-01-16T16:52:56.753Z,63.12
2019-01-16T16:55:45.393Z,61.33
2019-01-16T16:58:38.205Z,62.68
2019-01-16T17:01:28.560Z,61.08
2019-01-16T17:04:17.145Z,61.14
2019-01-16T17:07:18.386Z,60.83
2019-01-16T17:10:07.566Z,61.63
2019-01-16T17:12:56.148Z,61.44
2019-01-16T17:16:01.350Z,60.45
2019-01-16T17:18:51.193Z,61.20
2019-01-16T17:21:43.885Z,61.33
2019-01-16T17:24:25.535Z,61.64
2019-01-16T17:27:06.500Z,60.71
2019-01-16T17:30:11.428Z,61.23
2019-01-16T17:33:00.272Z,61.44
2019-01-16T17:35:56.100Z,62.43
2019-01-16T17:38:52.271Z,60.98
2019-01-16T17:41:41.011Z,61.04
2019-01-16T17:44:43.041Z,60.92
2019-01-16T17:47:33.279Z,60.94
2019-01-16T17:50:15.782Z,62.60
2019-01-16T17:53:04.446Z,62.94
2019-01-16T17:55:52.385Z,62.80
2019-01-16T17:58:41.109Z,62.80
2019-01-16T18:01:19.362Z,61.32
2019-01-16T18:04:12.201Z,61.04
2019-01-16T18:07:11.577Z,61.75
2019-01-16T18:10:00.286Z,61.56
2019-01-16T18:12:47.817Z,61.37
2019-01-16T18:15:40.080Z,63.19
2019-01-16T18:18:31.548Z,63.50
2019-01-16T18:21:18.570Z,62.51
2019-01-16T18:24:08.855Z,62.78
2019-01-16T18:27:10.647Z,64.54
2019-01-16T18:30:06.469Z,64.80
2019-01-16T18:33:14.504Z,64.35
2019-01-16T18:36:20.041Z,63.13
2019-01-16T18:39:08.916Z,65.68
2019-01-16T18:42:04.873Z,64.78
2019-01-16T18:44:57.852Z,65.89
2019-01-16T18:47:46.330Z,68.03
2019-01-16T18:51:09.237Z,68.80
2019-01-16T18:54:38.529Z,69.79
2019-01-16T18:57:52.901Z,70.46
2019-01-16T19:01:27.491Z,71.51
2019-01-16T19:04:13.364Z,71.62
2019-01-16T19:07:49.819Z,72.29
2019-01-16T19:11:20.900Z,72.54
2019-01-16T19:14:45.121Z,71.93
2019-01-16T19:17:50.170Z,72.41
2019-01-16T19:21:36.097Z,72.73
2019-01-16T19:24:35.000Z,73.48
2019-01-16T19:27:24.530Z,74.11
2019-01-16T19:30:25.737Z,74.78
2019-01-16T19:33:16.165Z,75.03
2019-01-16T19:36:05.248Z,74.14
2019-01-16T19:39:04.735Z,74.92
2019-01-16T19:42:00.424Z,69.22
2019-01-16T19:44:49.060Z,67.85
2019-01-16T19:48:25.759Z,67.94
2019-01-16T19:51:44.516Z,69.89
2019-01-16T19:55:29.127Z,72.13
2019-01-16T19:58:35.646Z,73.50
2019-01-16T20:01:25.373Z,73.67
2019-01-16T20:04:19.586Z,75.21
2019-01-16T20:07:09.523Z,74.41
2019-01-16T20:10:05.772Z,73.78
2019-01-16T20:12:56.268Z,74.38
2019-01-16T20:15:49.819Z,75.51
2019-01-16T20:18:28.618Z,73.16
2019-01-16T20:21:29.702Z,75.14
2019-01-16T20:24:23.543Z,75.11
2019-01-16T20:27:05.681Z,75.54
2019-01-16T20:29:54.383Z,74.53
2019-01-16T20:32:41.647Z,74.84
2019-01-16T20:35:37.901Z,71.53
2019-01-16T20:38:42.208Z,72.19
2019-01-16T20:41:31.194Z,74.72
2019-01-16T20:44:39.259Z,72.92
2019-01-16T20:47:22.580Z,70.97
2019-01-16T20:50:20.328Z,69.63
2019-01-16T20:53:27.536Z,68.41
2019-01-16T20:56:13.232Z,66.49
2019-01-16T20:59:23.049Z,65.72
2019-01-16T21:02:47.723Z,66.62
2019-01-16T21:05:50.022Z,67.50
2019-01-16T21:08:57.477Z,69.51
2019-01-16T21:11:56.377Z,70.23
2019-01-16T21:15:01.556Z,72.63
2019-01-16T21:18:07.396Z,73.71
2019-01-16T21:21:17.735Z,75.17
2019-01-16T21:24:27.553Z,73.51
2019-01-16T21:27:46.464Z,73.87
2019-01-16T21:30:51.810Z,74.26
2019-01-16T21:34:10.651Z,75.33
2019-01-16T21:37:26.054Z,75.84
2019-01-16T21:40:33.354Z,75.24
2019-01-16T21:43:46.330Z,75.42
2019-01-16T21:46:46.425Z,75.49
2019-01-16T21:49:59.150Z,75.47
2019-01-16T21:53:05.256Z,76.36
2019-01-16T21:56:12.707Z,76.59
2019-01-16T21:59:12.079Z,77.50
2019-01-16T22:02:30.989Z,77.83
2019-01-16T22:05:37.788Z,78.36
2019-01-16T22:08:38.047Z,78.02
2019-01-16T22:11:57.578Z,78.65
2019-01-16T22:15:03.333Z,79.69
2019-01-16T22:18:13.234Z,80.50
2019-01-16T22:21:35.192Z,80.69
2019-01-16T22:24:37.263Z,79.91
2019-01-16T22:27:51.211Z,80.10
2019-01-16T22:30:49.539Z,81.37
2019-01-16T22:34:00.247Z,80.61
2019-01-16T22:37:02.804Z,80.44
2019-01-16T22:40:16.770Z,81.62
2019-01-16T22:43:23.219Z,80.48
2019-01-16T22:46:29.123Z,80.64
2019-01-16T22:49:48.260Z,80.82
2019-01-16T22:53:01.743Z,81.44
2019-01-16T22:56:02.365Z,81.09
2019-01-16T22:59:17.722Z,81.76
2019-01-16T23:02:30.587Z,82.03
2019-01-16T23:05:35.778Z,83.07
2019-01-16T23:08:48.678Z,83.87
2019-01-16T23:12:14.635Z,84.08
2019-01-16T23:15:40.121Z,83.71
2019-01-16T23:18:52.721Z,83.52
2019-01-16T23:21:58.181Z,82.95
2019-01-16T23:25:23.629Z,82.50
2019-01-16T23:28:36.354Z,82.63
2019-01-16T23:31:52.104Z,82.92
2019-01-16T23:35:16.912Z,81.63
2019-01-16T23:38:22.806Z,83.46
2019-01-16T23:41:32.937Z,84.15
2019-01-16T23:44:45.622Z,84.32
2019-01-16T23:48:11.214Z,83.98
2019-01-16T23:51:20.578Z,84.27
2019-01-16T23:54:27.524Z,84.42
2019-01-16T23:57:34.422Z,84.83
